Time;durP1;ratioP1;P1;durP2;ratioP2;P2;SDS_P1;SDS_P2;PMS_P1;PMS_P2;Temp;Humidity;BMP_temperature;BMP_pressure;BME280_temperature;BME280_humidity;BME280_pressure;Samples;Min_cycle;Max_cycle;Signal;HPM_P1;HPM_P2
2022/08/17 00:00:21;;;;;;;6.63;4.80;;;;;;;22.55;53.72;99115.28;12235653;19;20479;-81
2022/08/17 00:04:43;;;;;;;4.97;4.43;;;;;;;22.51;53.76;99114.31;12213668;19;20010;-81
2022/08/17 00:08:53;;;;;;;6.72;4.95;;;;;;;22.50;53.77;99107.06;12235518;19;20042;-80
2022/08/17 00:12:55;;;;;;;6.70;5.03;;;;;;;22.48;53.69;99110.22;12236982;19;20040;-80
2022/08/17 00:16:57;;;;;;;7.17;4.40;;;;;;;22.46;54.17;99112.56;12214589;19;20363;-81
2022/08/17 00:21:00;;;;;;;8.80;4.90;;;;;;;22.43;54.36;99112.44;12234336;19;20006;-81
2022/08/17 00:25:07;;;;;;;4.93;4.38;;;;;;;22.41;54.55;99109.16;12233324;19;20359;-81
2022/08/17 00:29:09;;;;;;;4.93;4.10;;;;;;;22.41;54.43;99109.97;12209439;19;20463;-81
2022/08/17 00:33:24;;;;;;;6.85;4.32;;;;;;;22.46;54.59;99108.94;12229770;19;20010;-80
2022/08/17 00:37:26;;;;;;;6.60;4.35;;;;;;;22.44;54.09;99097.22;12232641;19;20409;-80
2022/08/17 00:41:28;;;;;;;7.95;4.20;;;;;;;22.44;54.33;99100.03;12206936;19;20467;-80
2022/08/17 00:45:31;;;;;;;6.45;4.45;;;;;;;22.44;53.80;99105.66;12233192;19;20007;-80
2022/08/17 00:49:33;;;;;;;5.45;4.05;;;;;;;22.47;54.30;99104.97;12208322;19;20011;-80
2022/08/17 00:53:40;;;;;;;5.20;4.20;;;;;;;22.49;53.88;99102.63;12231809;19;20007;-81
2022/08/17 00:57:45;;;;;;;6.43;4.53;;;;;;;22.51;54.35;99097.47;12232045;19;20471;-81
2022/08/17 01:01:49;;;;;;;6.75;4.85;;;;;;;22.51;53.97;99103.91;12209839;19;20020;-80
2022/08/17 01:05:54;;;;;;;6.15;4.45;;;;;;;22.47;54.30;99088.94;12229042;19;20007;-81
2022/08/17 01:09:58;;;;;;;9.38;4.90;;;;;;;22.44;53.99;99080.38;12227662;19;20031;-82
2022/08/17 01:14:00;;;;;;;6.95;4.78;;;;;;;22.45;54.03;99082.00;12205498;19;20006;-81
2022/08/17 01:18:06;;;;;;;7.28;4.35;;;;;;;22.48;53.87;99090.56;12230218;19;20090;-80
2022/08/17 01:22:09;;;;;;;6.60;4.43;;;;;;;22.52;53.72;99085.91;12228792;19;20368;-80
2022/08/17 01:26:11;;;;;;;7.85;4.57;;;;;;;22.50;53.70;99093.84;12215353;19;20014;-81
2022/08/17 01:30:13;;;;;;;5.20;4.50;;;;;;;22.44;54.12;99086.00;12230916;19;20418;-81
2022/08/17 01:34:35;;;;;;;4.88;4.38;;;;;;;22.38;53.93;99084.56;12208833;19;20034;-80
2022/08/17 01:38:43;;;;;;;9.45;4.43;;;;;;;22.35;53.88;99088.06;12229496;19;20003;-80
2022/08/17 01:42:59;;;;;;;5.70;3.77;;;;;;;22.35;54.13;99088.06;12229721;19;20538;-80
2022/08/17 01:47:01;;;;;;;10.77;4.47;;;;;;;22.32;53.82;99085.97;12208504;19;20878;-80
2022/08/17 01:51:06;;;;;;;6.30;4.63;;;;;;;22.27;54.17;99092.59;12226882;19;20010;-81
2022/08/17 01:55:08;;;;;;;6.65;4.40;;;;;;;22.27;53.79;99095.41;12226405;19;20002;-80
2022/08/17 01:59:11;;;;;;;5.47;4.32;;;;;;;22.27;54.01;99087.00;12204028;19;20027;-80
2022/08/17 02:03:16;;;;;;;4.78;4.07;;;;;;;22.24;54.11;99082.88;12226285;19;20058;-81
2022/08/17 02:07:18;;;;;;;6.77;3.93;;;;;;;22.21;54.16;99086.38;12226613;19;20027;-80
2022/08/17 02:11:27;;;;;;;7.10;4.43;;;;;;;22.19;54.04;99085.06;12201529;19;20006;-81
2022/08/17 02:15:30;;;;;;;5.22;4.30;;;;;;;22.14;54.13;99082.47;12225009;19;20429;-81
2022/08/17 02:19:32;;;;;;;6.30;4.38;;;;;;;22.07;54.54;99077.41;12203200;19;20027;-80
2022/08/17 02:23:39;;;;;;;4.90;4.10;;;;;;;22.03;54.79;99070.84;12224713;19;20010;-81
2022/08/17 02:27:41;;;;;;;6.28;4.30;;;;;;;22.02;54.74;99080.44;12223137;19;20006;-81
2022/08/17 02:31:43;;;;;;;5.38;4.57;;;;;;;21.97;55.02;99072.22;12206171;19;20639;-80
2022/08/17 02:35:44;;;;;;;6.78;4.18;;;;;;;21.95;55.09;99077.34;12229280;19;20019;-80
2022/08/17 02:39:46;;;;;;;6.63;4.32;;;;;;;21.94;54.91;99068.13;12229523;19;20018;-80
2022/08/17 02:43:48;;;;;;;6.40;4.13;;;;;;;21.96;54.92;99079.00;12210027;19;20095;-80
2022/08/17 02:47:50;;;;;;;8.02;4.43;;;;;;;21.95;54.85;99068.94;12228946;19;20091;-80
2022/08/17 02:51:52;;;;;;;;;;;;;;;21.98;54.69;99071.06;12232834;19;20010;-80
2022/08/17 02:55:54;;;;;;;6.50;4.00;;;;;;;21.98;54.94;99083.13;12207044;19;20365;-81
2022/08/17 02:59:55;;;;;;;7.90;4.40;;;;;;;21.97;55.12;99086.25;12229783;19;20062;-80
2022/08/17 03:03:57;;;;;;;6.13;4.40;;;;;;;21.99;55.29;99089.53;12228477;19;20040;-81
2022/08/17 03:07:59;;;;;;;6.28;4.25;;;;;;;21.96;55.20;99084.63;12204115;19;20007;-81
2022/08/17 03:12:11;;;;;;;5.30;4.15;;;;;;;21.91;55.19;99087.63;12225958;19;20078;-81
2022/08/17 03:16:12;;;;;;;5.78;4.32;;;;;;;21.83;55.83;99090.19;12225434;19;20030;-81
2022/08/17 03:20:15;;;;;;;9.38;4.70;;;;;;;21.73;56.64;99098.97;12201916;19;20382;-81
2022/08/17 03:24:16;;;;;;;6.75;4.80;;;;;;;21.61;56.94;99102.53;12223341;19;20584;-80
2022/08/17 03:28:18;;;;;;;6.28;4.68;;;;;;;21.49;57.46;99102.44;12227628;19;20007;-81
2022/08/17 03:32:20;;;;;;;6.28;5.00;;;;;;;21.36;57.95;99095.13;12213660;19;20462;-80
2022/08/17 03:36:22;;;;;;;9.13;5.87;;;;;;;21.23;58.43;99105.38;12236071;19;20010;-80
2022/08/17 03:40:24;;;;;;;8.88;5.35;;;;;;;21.08;59.27;99101.16;12231717;19;20006;-80
2022/08/17 03:44:50;;;;;;;9.50;5.32;;;;;;;20.88;59.85;99097.16;12213016;19;20007;-80
2022/08/17 03:57:39;;;;;;;6.38;5.10;;;;;;;20.51;61.16;99095.09;12231919;19;20482;-81
2022/08/17 04:01:45;;;;;;;7.43;5.55;;;;;;;20.39;62.05;99099.41;12211737;19;20014;-80
2022/08/17 04:05:47;;;;;;;6.65;5.35;;;;;;;20.35;62.21;99097.63;12233132;19;20489;-80
2022/08/17 04:09:49;;;;;;;7.93;5.82;;;;;;;20.35;62.44;99087.25;12231380;19;20109;-80
2022/08/17 04:13:50;;;;;;;6.15;5.15;;;;;;;20.35;62.61;99081.66;12211609;19;20011;-80
2022/08/17 04:17:52;;;;;;;7.00;5.35;;;;;;;20.33;62.57;99081.16;12231656;19;20087;-80
2022/08/17 04:21:54;;;;;;;5.65;5.05;;;;;;;20.27;62.69;99085.28;12232583;19;20014;-80
2022/08/17 04:25:56;;;;;;;7.90;5.40;;;;;;;20.23;62.88;99087.09;12210061;19;20089;-80
2022/08/17 04:29:57;;;;;;;6.87;5.40;;;;;;;20.22;63.04;99086.25;12233950;19;20034;-81
2022/08/17 04:33:59;;;;;;;6.65;5.40;;;;;;;20.26;63.30;99075.25;12231508;19;20070;-81
2022/08/17 04:38:00;;;;;;;8.82;5.15;;;;;;;20.30;63.38;99078.19;12208792;19;20017;-80
2022/08/17 04:42:15;;;;;;;5.75;4.78;;;;;;;20.36;62.83;99077.69;12233243;19;20367;-80
2022/08/17 04:46:20;;;;;;;10.30;4.50;;;;;;;20.42;62.83;99083.94;12230894;19;20018;-80
2022/08/17 04:50:21;;;;;;;5.82;4.43;;;;;;;20.52;62.87;99088.34;12206926;19;20095;-80
2022/08/17 04:54:24;;;;;;;8.15;5.00;;;;;;;20.58;62.81;99087.03;12230254;19;20010;-80
2022/08/17 04:58:26;;;;;;;8.43;5.00;;;;;;;20.61;63.07;99108.75;12230893;19;20087;-80
2022/08/17 05:02:27;;;;;;;7.65;5.15;;;;;;;20.65;63.42;99116.16;12207798;19;20022;-80
2022/08/17 05:06:29;;;;;;;5.90;4.88;;;;;;;20.76;63.07;99135.41;12227416;19;20014;-80
2022/08/17 05:10:34;;;;;;;6.93;4.90;;;;;;;20.88;63.43;99163.50;12203835;19;20017;-82
2022/08/17 05:14:38;;;;;;;13.82;7.80;;;;;;;20.88;64.64;99164.38;12226594;19;20033;-79
2022/08/17 05:18:40;;;;;;;11.18;8.05;;;;;;;20.85;65.12;99158.59;12225694;19;20090;-82
2022/08/17 05:22:50;;;;;;;10.18;7.70;;;;;;;20.77;65.74;99179.06;12200954;19;20131;-80
2022/08/17 05:26:52;;;;;;;10.07;7.88;;;;;;;20.79;65.40;99174.78;12228104;19;20030;-78
2022/08/17 05:30:58;;;;;;;11.88;9.10;;;;;;;20.76;66.12;99166.19;12225726;19;20014;-81
2022/08/17 05:34:59;;;;;;;10.23;8.20;;;;;;;20.70;66.40;99172.00;12206361;19;20062;-81
2022/08/17 05:39:01;;;;;;;16.02;9.25;;;;;;;20.80;66.88;99165.19;12233415;19;20010;-82
2022/08/17 05:43:11;;;;;;;9.68;7.97;;;;;;;20.76;67.33;99152.19;12226672;19;20010;-81
2022/08/17 05:47:13;;;;;;;14.82;8.60;;;;;;;20.82;66.95;99151.69;12204581;19;20098;-81
2022/08/17 05:51:26;;;;;;;12.50;8.73;;;;;;;20.97;66.64;99146.69;12219531;19;20455;-83
2022/08/17 05:55:34;;;;;;;;;;;;;;;21.05;66.34;99151.44;12227134;19;20007;-81
2022/08/17 06:00:01;;;;;;;12.50;7.70;;;;;;;21.22;66.42;99153.34;12232331;19;20352;-81
2022/08/17 06:04:29;;;;;;;11.38;7.80;;;;;;;21.39;65.44;99159.72;12223353;19;20462;-81
2022/08/17 06:08:49;;;;;;;10.85;7.32;;;;;;;21.50;65.56;99164.94;12203188;19;20095;-82
2022/08/17 06:13:26;;;;;;;15.98;8.25;;;;;;;21.57;64.91;99179.25;12223760;19;20005;-81
2022/08/17 06:17:29;;;;;;;15.15;8.15;;;;;;;21.59;65.21;99183.38;12214080;19;20010;-82
2022/08/17 06:21:41;;;;;;;10.98;7.82;;;;;;;21.69;65.14;99189.75;12228277;19;20020;-83
2022/08/17 06:25:51;;;;;;;10.52;8.05;;;;;;;21.78;65.03;99193.31;12205928;19;20031;-82
2022/08/17 06:30:21;;;;;;;11.68;8.30;;;;;;;21.74;65.19;99187.53;12226800;19;20062;-84
2022/08/17 06:34:22;;;;;;;10.40;7.60;;;;;;;21.64;65.03;99187.94;12224893;19;20019;-82
2022/08/17 06:38:31;;;;;;;10.70;8.25;;;;;;;21.69;65.00;99186.94;12206222;19;20006;-81
2022/08/17 06:43:13;;;;;;;14.63;8.35;;;;;;;21.75;65.09;99191.19;12223948;19;20440;-83
2022/08/17 06:47:40;;;;;;;10.75;8.07;;;;;;;21.91;64.40;99175.41;12202037;19;20006;-81
2022/08/17 06:51:52;;;;;;;9.45;7.45;;;;;;;22.07;64.62;99175.59;12222602;19;20027;-82
2022/08/17 06:56:00;;;;;;;9.80;7.63;;;;;;;22.21;63.86;99192.19;12202169;19;20518;-83
2022/08/17 07:00:06;;;;;;;9.63;7.13;;;;;;;22.43;63.26;99180.63;12230938;19;20441;-83
2022/08/17 07:04:15;;;;;;;8.52;7.20;;;;;;;22.79;62.71;99176.31;12225804;19;20500;-83
2022/08/17 07:08:49;;;;;;;8.70;6.95;;;;;;;23.01;61.62;99183.53;12201836;19;20015;-81
2022/08/17 07:12:57;;;;;;;13.18;7.43;;;;;;;23.17;61.09;99176.06;12223685;19;20361;-83
2022/08/17 07:17:05;;;;;;;11.88;7.15;;;;;;;23.24;60.89;99174.66;12199724;19;20015;-82
2022/08/17 07:21:16;;;;;;;11.40;6.78;;;;;;;23.28;60.33;99192.47;12222121;19;20033;-83
2022/08/17 07:25:22;;;;;;;9.48;7.40;;;;;;;23.20;60.15;99199.81;12224506;19;20010;-85
2022/08/17 07:29:23;;;;;;;12.90;7.07;;;;;;;23.20;60.70;99197.84;12202682;19;20088;-84
2022/08/17 07:33:28;;;;;;;9.43;6.68;;;;;;;23.26;60.33;99211.66;12221846;19;20019;-84
2022/08/17 07:37:32;;;;;;;14.52;7.68;;;;;;;23.32;60.48;99213.06;12200455;19;20454;-83
2022/08/17 07:41:39;;;;;;;11.00;7.00;;;;;;;23.43;60.45;99201.00;12230908;19;20006;-83
2022/08/17 07:50:41;;;;;;;11.80;6.95;;;;;;;23.51;60.76;99185.22;12227058;19;20034;-83
2022/08/17 07:54:49;;;;;;;8.60;6.55;;;;;;;23.50;60.97;99180.78;12255331;19;20374;-83
2022/08/17 07:59:09;;;;;;;8.93;6.32;;;;;;;23.57;60.90;99186.63;12229541;19;20006;-80
2022/08/17 08:03:25;;;;;;;13.88;7.28;;;;;;;23.54;62.76;99218.25;12226572;19;20039;-83
2022/08/17 08:07:34;;;;;;;10.68;7.60;;;;;;;23.49;64.02;99238.16;12214875;19;20022;-82
2022/08/17 08:11:36;;;;;;;11.27;7.65;;;;;;;23.36;64.16;99233.72;12219788;19;20467;-83
2022/08/17 08:15:48;;;;;;;11.57;7.60;;;;;;;23.26;64.31;99248.19;12230782;19;20006;-83
2022/08/17 08:19:57;;;;;;;11.23;8.05;;;;;;;23.11;65.96;99261.78;12213511;19;20007;-83
2022/08/17 08:24:27;;;;;;;15.70;8.48;;;;;;;23.11;67.35;99255.31;12232566;19;20100;-82
2022/08/17 08:28:46;;;;;;;13.63;8.07;;;;;;;23.06;66.58;99247.94;12209665;19;20003;-82
2022/08/17 08:32:53;;;;;;;14.63;9.15;;;;;;;23.14;67.25;99249.00;12231186;19;20099;-82
2022/08/17 08:37:20;;;;;;;14.48;10.10;;;;;;;23.22;66.94;99238.81;12234299;19;20559;-82
2022/08/17 08:41:58;;;;;;;11.88;8.55;;;;;;;23.39;67.67;99241.44;12211438;19;20026;-82
2022/08/17 08:46:30;;;;;;;16.65;10.90;;;;;;;23.76;66.71;99231.03;12233328;19;20095;-82
2022/08/17 08:50:47;;;;;;;15.00;9.30;;;;;;;24.18;65.59;99241.19;12209383;19;20006;-83
2022/08/17 08:55:27;;;;;;;14.55;9.95;;;;;;;24.44;63.66;99250.09;12231908;19;20103;-83
2022/08/17 08:59:43;;;;;;;14.40;9.55;;;;;;;24.66;63.75;99248.75;12209247;19;20090;-82
2022/08/17 09:04:17;;;;;;;18.02;10.38;;;;;;;24.96;61.46;99243.56;12231402;19;20007;-86
2022/08/17 09:08:44;;;;;;;16.42;9.82;;;;;;;24.82;61.07;99254.41;12207125;19;20046;-85
2022/08/17 09:13:05;;;;;;;15.48;9.73;;;;;;;24.77;62.24;99249.84;12230215;19;20095;-83
2022/08/17 09:17:43;;;;;;;14.95;10.02;;;;;;;24.62;61.65;99273.16;12223715;19;20014;-80
2022/08/17 09:21:53;;;;;;;10.73;8.55;;;;;;;24.47;62.58;99259.81;12271280;19;20530;-81
2022/08/17 09:26:05;;;;;;;18.27;10.75;;;;;;;24.48;62.59;99258.63;12251236;19;20010;-84
2022/08/17 09:30:08;;;;;;;;;;;;;;;24.55;62.36;99244.78;12274646;19;20119;-81
2022/08/17 09:34:15;;;;;;;13.23;8.52;;;;;;;24.71;61.89;99228.75;12271655;19;19914;-82
2022/08/17 09:38:33;;;;;;;12.75;10.13;;;;;;;25.16;61.47;99226.78;12250031;19;20056;-85
2022/08/17 09:42:47;;;;;;;11.40;8.68;;;;;;;25.80;59.48;99259.47;12232263;19;20048;-85
2022/08/17 09:46:54;;;;;;;16.95;8.73;;;;;;;26.19;57.82;99253.16;12211965;19;20119;-83
2022/08/17 09:51:18;;;;;;;15.15;8.88;;;;;;;26.50;56.70;99258.75;12231751;19;20321;-84
2022/08/17 09:55:26;;;;;;;14.23;9.50;;;;;;;26.69;55.88;99272.06;12230368;19;20048;-84
2022/08/17 09:59:40;;;;;;;22.88;9.90;;;;;;;26.73;55.32;99289.91;12209091;19;20534;-81
2022/08/17 10:04:04;;;;;;;12.95;9.10;;;;;;;26.71;55.28;99303.63;12228570;19;20379;-83
2022/08/17 10:08:22;;;;;;;13.48;9.68;;;;;;;26.90;54.53;99285.84;12208385;19;20044;-83
2022/08/17 10:13:04;;;;;;;16.10;10.02;;;;;;;27.17;53.64;99274.69;12227208;19;20011;-84
2022/08/17 10:17:25;;;;;;;16.20;9.80;;;;;;;27.83;51.20;99289.63;12203949;19;20010;-84
2022/08/17 10:30:08;;;;;;;12.57;9.27;;;;;;;27.63;51.13;99303.00;12227671;19;20046;-83
2022/08/17 10:34:27;;;;;;;16.25;8.98;;;;;;;27.71;50.43;99304.78;12227528;19;20014;-83
2022/08/17 10:38:35;;;;;;;12.43;8.63;;;;;;;27.79;50.02;99323.56;12205196;19;20190;-84
2022/08/17 10:43:09;;;;;;;20.48;10.10;;;;;;;27.61;49.35;99323.22;12226524;19;20014;-85
2022/08/17 10:47:14;;;;;;;12.93;9.38;;;;;;;27.24;50.59;99337.03;12203971;19;20476;-84
2022/08/17 10:51:36;;;;;;;15.25;9.20;;;;;;;26.62;51.20;99336.88;12225042;19;20006;-85
2022/08/17 10:55:40;;;;;;;15.35;9.02;;;;;;;26.35;52.59;99330.19;12204496;19;20348;-85
2022/08/17 10:59:41;;;;;;;18.23;9.88;;;;;;;26.21;53.32;99336.34;12227674;19;20028;-84
2022/08/17 11:03:55;;;;;;;14.27;9.77;;;;;;;25.99;56.34;99349.09;12225500;19;20018;-80
2022/08/17 11:08:04;;;;;;;12.95;9.52;;;;;;;25.90;55.59;99348.44;12209131;19;20095;-80
2022/08/17 11:12:25;;;;;;;17.25;9.40;;;;;;;26.00;56.47;99347.06;12231226;19;20010;-80
2022/08/17 11:16:52;;;;;;;14.30;9.13;;;;;;;26.10;56.66;99332.41;12227332;19;20031;-80
2022/08/17 11:21:19;;;;;;;19.08;8.93;;;;;;;26.00;56.07;99327.31;12205615;19;20066;-80
2022/08/17 11:25:31;;;;;;;13.98;8.77;;;;;;;26.07;54.91;99321.88;12225945;19;20011;-81
2022/08/17 11:29:48;;;;;;;15.05;9.38;;;;;;;26.34;53.85;99326.53;12204183;19;20522;-80
2022/08/17 11:34:03;;;;;;;13.27;8.48;;;;;;;26.89;52.10;99329.44;12224014;19;20018;-81
2022/08/17 11:38:45;;;;;;;14.55;8.18;;;;;;;27.14;51.05;99349.75;12208173;19;20011;-80
2022/08/17 11:43:19;;;;;;;10.32;7.15;;;;;;;27.51;49.46;99337.97;12230962;19;20467;-80
2022/08/17 11:52:46;;;;;;;8.40;6.10;;;;;;;28.04;46.22;99332.47;12238634;19;20027;-81
2022/08/17 11:56:49;;;;;;;9.88;5.63;;;;;;;28.22;45.68;99340.44;12213507;19;20467;-80
2022/08/17 12:01:28;;;;;;;9.10;5.68;;;;;;;28.38;44.11;99335.44;12239688;19;20024;-80
2022/08/17 12:05:32;;;;;;;7.47;4.97;;;;;;;28.84;43.84;99332.47;12214928;19;19998;-80
2022/08/17 12:09:39;;;;;;;7.82;5.15;;;;;;;29.50;42.62;99338.56;12239294;19;20409;-80
2022/08/17 12:13:48;;;;;;;5.85;5.25;;;;;;;29.82;41.27;99329.59;12215803;19;20031;-80
2022/08/17 12:17:52;;;;;;;8.35;5.30;;;;;;;30.66;39.37;99320.09;12240281;19;20378;-80
2022/08/17 12:21:56;;;;;;;7.90;5.40;;;;;;;30.96;38.13;99307.69;12239386;19;20040;-80
2022/08/17 12:26:06;;;;;;;7.75;5.18;;;;;;;31.08;37.58;99310.19;12212740;19;20009;-80
2022/08/17 12:30:11;;;;;;;7.45;5.32;;;;;;;31.17;36.46;99311.84;12236347;19;20070;-82
2022/08/17 12:34:25;;;;;;;8.15;5.13;;;;;;;30.78;36.74;99323.81;12235983;19;20471;-80
2022/08/17 12:38:29;;;;;;;10.95;6.07;;;;;;;30.37;37.46;99324.81;12214297;19;20010;-81
2022/08/17 12:42:38;;;;;;;7.00;5.68;;;;;;;30.25;37.62;99310.91;12237950;19;20040;-80
2022/08/17 12:47:00;;;;;;;7.40;5.70;;;;;;;30.36;37.68;99308.97;12214809;19;20010;-80
2022/08/17 12:51:06;;;;;;;14.30;5.50;;;;;;;30.71;36.62;99310.41;12239006;19;20416;-81
2022/08/17 12:55:19;;;;;;;8.55;5.28;;;;;;;30.65;36.21;99300.63;12233015;19;20014;-81
2022/08/17 12:59:22;;;;;;;6.93;5.47;;;;;;;30.73;36.76;99298.59;12214181;19;20027;-81
2022/08/17 13:03:38;;;;;;;6.35;5.43;;;;;;;30.88;36.93;99286.94;12235902;19;20023;-81
2022/08/17 13:07:41;;;;;;;13.23;7.38;;;;;;;31.06;36.11;99289.88;12214937;19;20014;-80
2022/08/17 13:11:55;;;;;;;8.50;5.07;;;;;;;30.81;36.21;99288.94;12234949;19;20014;-80
2022/08/17 13:15:59;;;;;;;7.63;5.53;;;;;;;30.44;36.84;99275.72;12236576;19;20023;-80
2022/08/17 13:20:12;;;;;;;6.32;5.28;;;;;;;30.16;37.46;99268.63;12215860;19;20017;-79
2022/08/17 13:24:31;;;;;;;5.80;4.72;;;;;;;30.10;37.93;99258.84;12236335;19;20506;-80
2022/08/17 13:28:46;;;;;;;7.95;5.18;;;;;;;30.38;37.00;99258.22;12211391;19;20034;-81
2022/08/17 13:32:47;;;;;;;7.38;5.43;;;;;;;30.93;36.03;99250.78;12233817;19;20018;-81
2022/08/17 13:37:12;;;;;;;8.07;5.40;;;;;;;31.69;35.72;99253.41;12233413;19;20042;-80
2022/08/17 13:41:35;;;;;;;7.68;5.05;;;;;;;32.60;33.88;99240.69;12211590;19;20014;-81
2022/08/17 13:45:42;;;;;;;7.28;5.50;;;;;;;32.72;33.53;99234.56;12233254;19;20010;-80
2022/08/17 13:49:45;;;;;;;6.18;5.45;;;;;;;33.45;33.01;99233.75;12209690;19;20136;-81
2022/08/17 13:53:57;;;;;;;7.93;6.15;;;;;;;33.45;32.79;99245.16;12231252;19;20505;-80
2022/08/17 13:57:58;;;;;;;7.65;5.53;;;;;;;33.17;33.31;99231.91;12236504;19;20010;-81
2022/08/17 14:02:10;;;;;;;7.22;5.55;;;;;;;33.15;32.70;99225.00;12211661;19;20006;-80
2022/08/17 14:06:11;;;;;;;8.43;6.28;;;;;;;33.10;32.73;99234.78;12232254;19;20478;-80
2022/08/17 14:10:35;;;;;;;6.20;5.47;;;;;;;33.45;32.53;99225.19;12210457;19;20006;-80
2022/08/17 14:14:38;;;;;;;7.13;5.45;;;;;;;34.53;30.79;99209.91;12231114;19;20003;-80
2022/08/17 14:18:40;;;;;;;7.75;5.95;;;;;;;35.00;30.37;99213.00;12234443;19;20007;-81
2022/08/17 14:22:57;;;;;;;6.45;5.85;;;;;;;34.49;30.08;99219.34;12209445;19;20035;-81
2022/08/17 14:27:02;;;;;;;6.82;5.38;;;;;;;33.99;30.73;99208.41;12229995;19;20010;-81
2022/08/17 14:31:06;;;;;;;6.00;5.03;;;;;;;33.33;31.08;99209.34;12231753;19;20363;-82
2022/08/17 14:35:09;;;;;;;6.75;5.20;;;;;;;33.10;31.44;99204.19;12205429;19;20379;-80
2022/08/17 14:39:12;;;;;;;6.68;5.03;;;;;;;33.20;31.22;99198.84;12230062;19;20010;-81
2022/08/17 14:43:14;;;;;;;7.20;5.55;;;;;;;33.28;31.35;99197.56;12230022;19;20023;-81
2022/08/17 14:47:16;;;;;;;;;;;;;;;32.98;31.69;99198.13;12208241;19;20076;-81
2022/08/17 14:51:19;;;;;;;5.53;4.90;;;;;;;32.62;31.82;99189.75;12229468;19;19974;-81
2022/08/17 14:55:21;;;;;;;6.40;5.60;;;;;;;32.44;31.62;99187.78;12228109;19;20010;-81
2022/08/17 14:59:23;;;;;;;;;;;;;;;32.26;32.24;99183.34;12208227;19;20017;-81
2022/08/17 15:03:27;;;;;;;6.32;4.43;;;;;;;32.16;32.41;99182.16;12229003;19;19931;-81
2022/08/17 15:07:28;;;;;;;5.47;4.85;;;;;;;31.97;32.49;99177.72;12219205;19;20007;-80
2022/08/17 15:11:31;;;;;;;8.82;5.18;;;;;;;31.83;32.31;99183.41;12224791;19;20086;-81
2022/08/17 15:15:33;;;;;;;4.80;4.30;;;;;;;31.68;32.69;99191.97;12224971;19;20462;-81
2022/08/17 15:19:34;;;;;;;5.15;4.13;;;;;;;31.32;32.98;99189.09;12204749;19;20002;-79
2022/08/17 15:23:38;;;;;;;7.25;4.30;;;;;;;31.25;33.16;99177.69;12229537;19;20054;-80
2022/08/17 15:27:41;;;;;;;5.30;4.57;;;;;;;31.21;32.88;99182.56;12230487;19;20459;-80
2022/08/17 15:31:42;;;;;;;5.15;3.78;;;;;;;30.99;33.67;99193.09;12210908;19;20011;-81
2022/08/17 15:35:44;;;;;;;5.57;4.57;;;;;;;30.85;33.49;99191.03;12233244;19;20010;-80
2022/08/17 15:39:46;;;;;;;5.88;4.43;;;;;;;30.72;33.92;99186.06;12235229;19;20357;-80
2022/08/17 15:43:51;;;;;;;5.13;4.63;;;;;;;30.66;33.86;99174.28;12214962;19;20365;-82
2022/08/17 15:47:53;;;;;;;5.88;5.07;;;;;;;30.58;34.06;99169.75;12242929;19;20502;-80
2022/08/17 15:51:54;;;;;;;;;;;;;;;30.59;34.04;99169.38;12235237;19;20027;-80
2022/08/17 15:55:56;;;;;;;6.28;4.53;;;;;;;30.67;34.15;99167.38;12211763;19;20001;-80
2022/08/17 15:59:58;;;;;;;5.82;4.50;;;;;;;30.79;33.96;99164.19;12239589;19;20062;-81
2022/08/17 16:04:00;;;;;;;7.05;4.75;;;;;;;30.83;33.08;99162.16;12238790;19;20067;-81
2022/08/17 16:08:22;;;;;;;5.22;4.50;;;;;;;30.79;33.41;99149.97;12217091;19;20020;-80
2022/08/17 16:12:24;;;;;;;7.28;5.40;;;;;;;30.73;33.10;99157.25;12232407;19;20015;-80
2022/08/17 16:16:27;;;;;;;6.00;5.10;;;;;;;30.84;33.12;99151.59;12231608;19;20077;-80
2022/08/17 16:20:29;;;;;;;6.72;5.07;;;;;;;30.94;33.15;99169.94;12212527;19;20006;-80
2022/08/17 16:24:31;;;;;;;;;;;;;;;30.85;32.75;99165.44;12236012;19;20009;-80
2022/08/17 16:28:33;;;;;;;7.60;5.22;;;;;;;30.79;32.71;99163.41;12215253;19;20249;-80
2022/08/17 16:32:37;;;;;;;5.93;5.03;;;;;;;30.66;32.76;99160.06;12235710;19;20341;-81
2022/08/17 16:36:39;;;;;;;6.68;5.43;;;;;;;30.58;32.90;99164.09;12231145;19;20467;-80
2022/08/17 16:40:41;;;;;;;9.48;4.82;;;;;;;30.38;33.40;99161.59;12211749;19;20047;-80
2022/08/17 16:44:42;;;;;;;8.13;5.30;;;;;;;30.27;33.67;99163.56;12237851;19;20015;-80
2022/08/17 16:48:45;;;;;;;5.63;4.53;;;;;;;30.15;34.12;99161.84;12237170;19;20011;-80
2022/08/17 16:52:47;;;;;;;6.78;5.20;;;;;;;30.10;34.00;99164.25;12219450;19;20040;-79
2022/08/17 16:56:49;;;;;;;6.18;4.72;;;;;;;30.03;34.26;99161.38;12269638;19;20007;-80
2022/08/17 17:00:51;;;;;;;7.50;4.97;;;;;;;29.96;34.71;99153.63;12269439;19;20011;-80
2022/08/17 17:05:01;;;;;;;7.50;4.65;;;;;;;29.89;34.33;99145.84;12245492;19;20015;-80
2022/08/17 17:09:11;;;;;;;7.68;5.50;;;;;;;29.72;34.65;99155.09;12257990;19;20051;-80
2022/08/17 17:13:23;;;;;;;7.68;5.30;;;;;;;29.60;34.98;99144.00;12237346;19;20014;-79
2022/08/17 17:17:31;;;;;;;8.40;5.22;;;;;;;29.48;34.86;99133.81;12213640;19;20014;-80
2022/08/17 17:22:06;;;;;;;9.95;5.00;;;;;;;29.39;34.88;99142.66;12236036;19;20022;-80
2022/08/17 17:26:19;;;;;;;6.63;5.40;;;;;;;29.24;35.28;99136.03;12206843;19;20073;-80
2022/08/17 17:30:47;;;;;;;8.57;5.13;;;;;;;29.15;35.55;99144.06;12229752;19;20094;-81
2022/08/17 17:34:55;;;;;;;10.13;5.20;;;;;;;28.97;36.14;99129.69;12208817;19;20521;-80
2022/08/17 17:39:15;;;;;;;7.10;5.15;;;;;;;28.83;36.61;99126.72;12232472;19;20503;-80
2022/08/17 17:43:24;;;;;;;9.80;5.53;;;;;;;28.72;36.85;99128.59;12225428;19;20013;-84
2022/08/17 17:47:41;;;;;;;7.45;5.53;;;;;;;28.60;37.05;99130.50;12202074;19;20393;-85
2022/08/17 17:52:02;;;;;;;6.63;4.97;;;;;;;28.54;37.23;99132.06;12222789;19;20078;-84
2022/08/17 17:56:22;;;;;;;5.72;5.10;;;;;;;28.43;37.48;99135.97;12207782;19;20033;-82
2022/08/17 18:01:08;;;;;;;10.27;5.45;;;;;;;28.38;37.34;99128.59;12225301;19;20006;-86
2022/08/17 18:05:14;;;;;;;9.18;5.63;;;;;;;28.27;37.67;99130.50;12202580;19;20495;-84
2022/08/17 18:09:37;;;;;;;9.15;5.07;;;;;;;28.09;38.38;99128.25;12224503;19;20095;-86
2022/08/17 18:14:06;;;;;;;7.85;5.32;;;;;;;28.04;38.41;99127.75;12205412;19;20451;-84
2022/08/17 18:18:36;;;;;;;5.95;5.25;;;;;;;27.83;38.85;99131.91;12226602;19;20036;-85
2022/08/17 18:22:38;;;;;;;10.25;5.25;;;;;;;27.60;39.28;99140.44;12203032;19;20075;-84
2022/08/17 18:26:40;;;;;;;9.87;4.87;;;;;;;27.39;39.91;99135.25;12224674;19;20008;-83
2022/08/17 18:31:18;;;;;;;7.30;5.35;;;;;;;27.15;39.95;99130.81;12225198;19;20264;-83
2022/08/17 18:35:21;;;;;;;7.80;5.65;;;;;;;26.96;40.44;99116.72;12205720;19;20013;-84
2022/08/17 18:39:27;;;;;;;8.05;5.20;;;;;;;26.78;40.88;99122.88;12226528;19;20072;-84
2022/08/17 18:43:35;;;;;;;10.02;5.57;;;;;;;26.59;41.40;99137.00;12216383;19;20043;-83
2022/08/17 18:47:55;;;;;;;9.93;5.32;;;;;;;26.39;41.64;99139.03;12227707;19;20074;-84
2022/08/17 18:52:21;;;;;;;10.20;6.70;;;;;;;26.19;42.31;99146.69;12221818;19;20070;-83
2022/08/17 18:56:27;;;;;;;9.18;5.93;;;;;;;26.02;42.44;99152.75;12206891;19;20013;-86
2022/08/17 19:00:37;;;;;;;7.75;5.63;;;;;;;25.86;42.72;99149.97;12221300;19;20486;-83
2022/08/17 19:05:08;;;;;;;8.15;5.40;;;;;;;25.70;42.72;99144.34;12200117;19;20006;-84
2022/08/17 19:09:32;;;;;;;7.22;5.10;;;;;;;25.56;43.46;99163.75;12222898;19;20070;-83
2022/08/17 19:13:40;;;;;;;8.25;5.00;;;;;;;25.46;43.24;99173.56;12204931;19;20011;-85
2022/08/17 19:17:58;;;;;;;7.13;6.18;;;;;;;25.32;44.07;99165.59;12223794;19;20019;-84
2022/08/17 19:22:22;;;;;;;7.93;6.13;;;;;;;25.22;44.20;99183.03;12225719;19;20078;-84
2022/08/17 19:26:44;;;;;;;7.50;5.55;;;;;;;25.17;44.23;99189.78;12200027;19;20009;-83
2022/08/17 19:30:58;;;;;;;10.52;5.43;;;;;;;25.12;44.31;99195.66;12221305;19;20015;-83
2022/08/17 19:35:00;;;;;;;7.65;5.15;;;;;;;25.08;44.18;99194.75;12197457;19;20018;-83
2022/08/17 19:39:11;;;;;;;6.70;5.47;;;;;;;25.02;44.93;99182.94;12223102;19;20011;-84
2022/08/17 19:43:20;;;;;;;6.72;4.68;;;;;;;24.97;45.04;99180.38;12221214;19;20403;-84
2022/08/17 19:47:41;;;;;;;5.80;5.10;;;;;;;24.91;45.27;99195.91;12201168;19;20027;-84